Time;durP1;ratioP1;P1;durP2;ratioP2;P2;SDS_P1;SDS_P2;PMS_P1;PMS_P2;Temp;Humidity;BMP_temperature;BMP_pressure;BME280_temperature;BME280_humidity;BME280_pressure;Samples;Min_cycle;Max_cycle;Signal;HPM_P1;HPM_P2
2023/08/31 00:01:32;;;;;;;2.42;2.22;;;;;;;;;;5097664;28;20578;-62
2023/08/31 00:04:00;;;;;;;2.13;1.92;;;;;;;;;;5080285;28;20534;-62
2023/08/31 00:06:29;;;;;;;2.40;2.10;;;;;;;;;;5078292;28;20232;-62
2023/08/31 00:08:57;;;;;;;2.47;2.10;;;;;;;;;;5097820;28;20211;-62
2023/08/31 00:11:26;;;;;;;2.28;2.08;;;;;;;;;;5097702;28;20575;-62
2023/08/31 00:13:53;;;;;;;2.10;2.00;;;;;;;;;;5097206;28;20211;-62
2023/08/31 00:16:26;;;;;;;2.83;2.40;;;;;;;;;;5097706;28;20213;-62
2023/08/31 00:18:54;;;;;;;1.92;1.83;;;;;;;;;;5097020;28;20203;-62
2023/08/31 00:21:22;;;;;;;2.47;2.10;;;;;;;;;;5097317;28;20199;-62
2023/08/31 00:23:50;;;;;;;2.20;1.95;;;;;;;;;;5097269;28;20298;-62
2023/08/31 00:26:18;;;;;;;2.38;2.17;;;;;;;;;;5097162;28;20223;-62
2023/08/31 00:28:45;;;;;;;2.28;2.13;;;;;;;;;;5097178;28;20492;-62
2023/08/31 00:31:13;;;;;;;2.05;1.88;;;;;;;;;;5097637;28;20203;-62
2023/08/31 00:33:40;;;;;;;2.50;2.30;;;;;;;;;;5097483;28;20209;-62
2023/08/31 00:36:08;;;;;;;2.25;2.08;;;;;;;;;;5096559;28;20205;-62
2023/08/31 00:38:35;;;;;;;2.17;2.08;;;;;;;;;;5097337;28;20215;-62
2023/08/31 00:41:04;;;;;;;2.40;2.20;;;;;;;;;;5097233;28;20642;-62
2023/08/31 00:43:32;;;;;;;2.30;2.10;;;;;;;;;;5097519;28;20302;-62
2023/08/31 00:46:00;;;;;;;3.35;2.00;;;;;;;;;;5097135;28;20631;-62
2023/08/31 00:48:27;;;;;;;2.10;2.00;;;;;;;;;;5097144;28;20622;-62
2023/08/31 00:50:55;;;;;;;2.40;2.20;;;;;;;;;;5097416;28;20218;-62
2023/08/31 00:53:23;;;;;;;2.20;2.00;;;;;;;;;;5097036;28;20239;-62
2023/08/31 00:55:50;;;;;;;2.50;2.30;;;;;;;;;;5096928;28;20212;-62
2023/08/31 00:58:20;;;;;;;2.40;2.10;;;;;;;;;;5097438;28;20523;-62
2023/08/31 01:00:51;;;;;;;2.38;2.17;;;;;;;;;;5097305;28;20303;-62
2023/08/31 01:03:24;;;;;;;2.30;2.10;;;;;;;;;;5097084;28;20203;-62
2023/08/31 01:05:54;;;;;;;2.50;2.30;;;;;;;;;;5097215;28;20211;-62
2023/08/31 01:08:25;;;;;;;2.78;2.20;;;;;;;;;;5096955;28;20222;-62
2023/08/31 01:11:00;;;;;;;2.60;2.08;;;;;;;;;;5097360;28;20214;-62
2023/08/31 01:13:32;;;;;;;3.22;2.20;;;;;;;;;;5097193;28;20207;-62
2023/08/31 01:16:03;;;;;;;2.28;2.08;;;;;;;;;;5100162;28;20207;-62
2023/08/31 01:18:31;;;;;;;2.47;2.30;;;;;;;;;;5101248;28;20204;-62
2023/08/31 01:21:02;;;;;;;2.97;2.30;;;;;;;;;;5100932;28;20503;-62
2023/08/31 01:23:33;;;;;;;2.22;2.13;;;;;;;;;;5100802;28;20212;-62
2023/08/31 01:26:02;;;;;;;2.78;2.30;;;;;;;;;;5100789;28;20214;-62
2023/08/31 01:28:30;;;;;;;2.10;2.00;;;;;;;;;;5100644;28;20222;-62
2023/08/31 01:30:57;;;;;;;2.53;2.20;;;;;;;;;;5100429;28;20302;-62
2023/08/31 01:33:24;;;;;;;3.05;2.03;;;;;;;;;;5100536;28;20583;-62
2023/08/31 01:35:53;;;;;;;2.60;2.40;;;;;;;;;;5100643;28;20200;-62
2023/08/31 01:38:23;;;;;;;2.58;2.38;;;;;;;;;;5100413;28;20445;-62
2023/08/31 01:40:54;;;;;;;2.00;1.80;;;;;;;;;;5099572;28;20344;-62
2023/08/31 01:43:23;;;;;;;2.42;2.08;;;;;;;;;;5079669;28;20204;-62
2023/08/31 01:45:51;;;;;;;2.35;2.15;;;;;;;;;;5080439;28;20223;-62
2023/08/31 01:48:18;;;;;;;3.45;2.20;;;;;;;;;;5081777;28;20611;-62
2023/08/31 01:50:45;;;;;;;2.25;2.10;;;;;;;;;;5080015;28;20291;-62
2023/08/31 01:53:13;;;;;;;2.50;2.30;;;;;;;;;;5080334;28;20208;-62
2023/08/31 01:55:41;;;;;;;1.60;1.50;;;;;;;;;;5088204;28;20231;-62
2023/08/31 01:58:08;;;;;;;2.45;2.15;;;;;;;;;;5079725;28;20212;-62
2023/08/31 02:00:38;;;;;;;2.00;1.90;;;;;;;;;;5082858;28;20211;-62
2023/08/31 02:03:08;;;;;;;2.75;2.03;;;;;;;;;;5088341;28;20207;-62
2023/08/31 02:05:35;;;;;;;2.00;1.90;;;;;;;;;;5089162;28;20204;-62
2023/08/31 02:08:03;;;;;;;2.30;1.90;;;;;;;;;;5079517;28;20224;-62
2023/08/31 02:13:06;;;;;;;2.65;2.15;;;;;;;;;;4401015;26;20239;-62
2023/08/31 02:15:33;;;;;;;2.45;2.22;;;;;;;;;;5088594;28;20204;-62
2023/08/31 02:18:02;;;;;;;1.90;1.80;;;;;;;;;;5079136;28;20235;-62
2023/08/31 02:20:31;;;;;;;3.33;2.03;;;;;;;;;;5086543;28;20204;-62
2023/08/31 02:22:58;;;;;;;2.63;1.80;;;;;;;;;;5099578;28;20203;-62
2023/08/31 02:25:27;;;;;;;1.90;1.80;;;;;;;;;;5099035;28;20204;-62
2023/08/31 02:27:55;;;;;;;1.92;1.83;;;;;;;;;;5099546;28;20285;-62
2023/08/31 02:30:23;;;;;;;2.05;1.95;;;;;;;;;;5099391;28;20238;-62
2023/08/31 02:32:51;;;;;;;2.13;1.80;;;;;;;;;;5099418;28;20268;-62
2023/08/31 02:35:20;;;;;;;1.90;1.80;;;;;;;;;;5099378;28;20207;-62
2023/08/31 02:37:47;;;;;;;1.98;1.88;;;;;;;;;;5099662;28;20199;-62
2023/08/31 02:40:15;;;;;;;1.90;1.75;;;;;;;;;;5099414;28;20215;-62
2023/08/31 02:42:43;;;;;;;1.80;1.70;;;;;;;;;;5099460;28;20547;-62
2023/08/31 02:45:11;;;;;;;1.88;1.77;;;;;;;;;;5098931;28;20204;-62
2023/08/31 02:47:39;;;;;;;1.88;1.67;;;;;;;;;;5096595;28;20227;-62
2023/08/31 02:50:07;;;;;;;1.75;1.65;;;;;;;;;;5083088;28;20262;-62
2023/08/31 02:52:35;;;;;;;1.58;1.48;;;;;;;;;;5092919;28;20200;-62
2023/08/31 02:55:03;;;;;;;1.80;1.52;;;;;;;;;;5078908;28;20204;-62
2023/08/31 02:57:30;;;;;;;1.67;1.58;;;;;;;;;;5078510;28;20230;-62
2023/08/31 02:59:58;;;;;;;1.63;1.52;;;;;;;;;;5078436;28;20543;-62
2023/08/31 03:02:25;;;;;;;2.15;1.65;;;;;;;;;;5078022;28;20196;-62
2023/08/31 03:04:53;;;;;;;1.58;1.48;;;;;;;;;;5098144;28;20234;-62
2023/08/31 03:07:20;;;;;;;1.90;1.70;;;;;;;;;;5099071;28;20237;-62
2023/08/31 03:09:51;;;;;;;1.70;1.60;;;;;;;;;;5098915;28;20632;-62
2023/08/31 03:12:19;;;;;;;1.40;1.30;;;;;;;;;;5109268;28;20235;-62
2023/08/31 03:14:46;;;;;;;1.40;1.30;;;;;;;;;;5118753;28;20203;-62
2023/08/31 03:17:14;;;;;;;1.90;1.50;;;;;;;;;;5119084;28;20484;-62
2023/08/31 03:19:41;;;;;;;1.40;1.30;;;;;;;;;;5118746;28;20218;-62
2023/08/31 03:22:10;;;;;;;1.75;1.60;;;;;;;;;;5118707;28;20213;-62
2023/08/31 03:24:38;;;;;;;1.15;1.15;;;;;;;;;;5109568;28;20290;-62
2023/08/31 03:27:17;;;;;;;1.80;1.70;;;;;;;;;;5102806;28;20626;-62
2023/08/31 03:29:44;;;;;;;1.90;1.40;;;;;;;;;;5107766;28;20204;-62
2023/08/31 03:32:12;;;;;;;1.40;1.30;;;;;;;;;;5118350;28;20199;-62
2023/08/31 03:34:39;;;;;;;2.72;1.75;;;;;;;;;;5118141;28;20203;-62
2023/08/31 03:37:06;;;;;;;1.40;1.30;;;;;;;;;;5117281;28;20199;-62
2023/08/31 03:39:34;;;;;;;2.35;1.52;;;;;;;;;;5118563;28;20203;-62
2023/08/31 03:42:02;;;;;;;2.13;1.38;;;;;;;;;;5117838;28;20214;-62
2023/08/31 03:44:31;;;;;;;1.30;1.20;;;;;;;;;;5117930;28;20203;-62
2023/08/31 03:46:58;;;;;;;1.55;1.45;;;;;;;;;;5117636;28;20230;-62
2023/08/31 03:49:25;;;;;;;1.58;1.42;;;;;;;;;;5117463;28;20214;-62
2023/08/31 03:51:53;;;;;;;1.30;1.20;;;;;;;;;;5117868;28;20202;-62
2023/08/31 03:54:21;;;;;;;1.50;1.40;;;;;;;;;;5118299;28;20202;-62
2023/08/31 03:56:49;;;;;;;1.77;1.30;;;;;;;;;;5117548;28;20245;-62
2023/08/31 03:59:16;;;;;;;1.70;1.60;;;;;;;;;;5117361;28;20217;-62
2023/08/31 04:01:45;;;;;;;1.80;1.70;;;;;;;;;;5117850;28;20233;-62
2023/08/31 04:04:12;;;;;;;1.45;1.35;;;;;;;;;;5117902;28;20203;-62
2023/08/31 04:06:40;;;;;;;1.52;1.40;;;;;;;;;;5117578;28;20202;-62
2023/08/31 04:09:07;;;;;;;1.70;1.50;;;;;;;;;;5117142;28;20226;-62
2023/08/31 04:11:35;;;;;;;1.50;1.30;;;;;;;;;;5112873;28;20285;-62
2023/08/31 04:14:02;;;;;;;1.50;1.40;;;;;;;;;;5097037;28;20210;-62
2023/08/31 04:16:29;;;;;;;1.50;1.40;;;;;;;;;;5097066;28;20203;-62
2023/08/31 04:18:58;;;;;;;2.00;1.33;;;;;;;;;;5096762;28;20227;-62
2023/08/31 04:21:26;;;;;;;1.40;1.30;;;;;;;;;;5096471;28;20211;-62
2023/08/31 04:23:53;;;;;;;2.47;1.73;;;;;;;;;;5096524;28;20199;-62
2023/08/31 04:26:20;;;;;;;1.52;1.40;;;;;;;;;;5096779;28;20552;-62
2023/08/31 04:28:48;;;;;;;1.70;1.40;;;;;;;;;;5096523;28;20238;-62
2023/08/31 04:31:15;;;;;;;1.50;1.40;;;;;;;;;;5096875;28;20535;-62
2023/08/31 04:33:43;;;;;;;2.45;1.58;;;;;;;;;;5096317;28;20215;-62
2023/08/31 04:36:11;;;;;;;2.13;1.48;;;;;;;;;;5096064;28;20242;-62
2023/08/31 04:38:39;;;;;;;1.42;1.33;;;;;;;;;;5096089;28;20243;-62
2023/08/31 04:41:06;;;;;;;1.45;1.33;;;;;;;;;;5095719;28;20204;-62
2023/08/31 04:43:34;;;;;;;1.60;1.50;;;;;;;;;;5095324;28;20238;-62
2023/08/31 04:46:03;;;;;;;1.38;1.27;;;;;;;;;;5095218;28;20261;-62
2023/08/31 04:48:30;;;;;;;1.85;1.60;;;;;;;;;;5095995;28;20270;-62
2023/08/31 04:50:58;;;;;;;1.75;1.65;;;;;;;;;;5099501;28;20196;-62
2023/08/31 04:53:27;;;;;;;2.00;1.50;;;;;;;;;;5098225;28;20207;-62
2023/08/31 04:55:54;;;;;;;1.88;1.40;;;;;;;;;;5099130;28;20203;-62
2023/08/31 04:58:22;;;;;;;2.70;1.60;;;;;;;;;;5098931;28;20207;-62
2023/08/31 05:00:50;;;;;;;1.58;1.48;;;;;;;;;;5098644;28;20203;-62
2023/08/31 05:03:17;;;;;;;2.20;1.60;;;;;;;;;;5098537;28;20203;-62
2023/08/31 05:05:44;;;;;;;1.92;1.40;;;;;;;;;;5097922;28;20204;-62
2023/08/31 05:08:12;;;;;;;1.83;1.50;;;;;;;;;;5098154;28;20579;-62
2023/08/31 05:10:40;;;;;;;1.73;1.45;;;;;;;;;;5098835;28;20203;-62
2023/08/31 05:13:08;;;;;;;2.00;1.50;;;;;;;;;;5098556;28;20238;-62
2023/08/31 05:15:36;;;;;;;1.55;1.45;;;;;;;;;;5097035;28;20203;-62
2023/08/31 05:18:03;;;;;;;1.48;1.38;;;;;;;;;;5096853;28;20196;-62
2023/08/31 05:20:31;;;;;;;2.10;1.58;;;;;;;;;;5097158;28;20195;-62
2023/08/31 05:22:58;;;;;;;2.08;1.65;;;;;;;;;;5091351;28;20200;-62
2023/08/31 05:25:25;;;;;;;1.38;1.17;;;;;;;;;;5078077;28;20457;-62
2023/08/31 05:27:54;;;;;;;1.50;1.40;;;;;;;;;;5077927;28;20219;-62
2023/08/31 05:30:22;;;;;;;1.80;1.60;;;;;;;;;;5077633;28;20571;-62
2023/08/31 05:32:49;;;;;;;2.20;1.65;;;;;;;;;;5077643;28;20543;-62
2023/08/31 05:35:17;;;;;;;2.28;2.08;;;;;;;;;;5077877;28;20196;-62
2023/08/31 05:37:44;;;;;;;2.00;1.85;;;;;;;;;;5077095;28;20510;-62
2023/08/31 05:40:12;;;;;;;2.60;1.83;;;;;;;;;;5076772;28;20200;-62
2023/08/31 05:42:40;;;;;;;2.45;2.15;;;;;;;;;;5076737;28;20202;-62
2023/08/31 05:45:09;;;;;;;2.65;1.90;;;;;;;;;;5076916;28;20203;-62
2023/08/31 05:47:36;;;;;;;2.00;1.80;;;;;;;;;;5076442;28;20220;-62
2023/08/31 05:50:04;;;;;;;2.67;2.05;;;;;;;;;;5076491;28;20270;-62
2023/08/31 05:52:31;;;;;;;2.38;2.17;;;;;;;;;;5076543;28;20211;-62
2023/08/31 05:54:58;;;;;;;2.53;1.90;;;;;;;;;;5076508;28;20216;-62
2023/08/31 05:57:28;;;;;;;2.50;2.20;;;;;;;;;;5077673;28;20227;-62
2023/08/31 05:59:56;;;;;;;2.67;1.90;;;;;;;;;;5076507;28;20261;-62
2023/08/31 06:02:24;;;;;;;2.45;2.25;;;;;;;;;;5077247;28;20583;-62
2023/08/31 06:04:52;;;;;;;2.63;1.83;;;;;;;;;;5077170;28;20220;-62
2023/08/31 06:07:19;;;;;;;2.55;2.25;;;;;;;;;;5077059;28;20204;-62
2023/08/31 06:09:48;;;;;;;2.30;2.10;;;;;;;;;;5076902;28;20196;-62
2023/08/31 06:12:15;;;;;;;2.70;2.50;;;;;;;;;;5086919;28;20318;-62
2023/08/31 06:14:43;;;;;;;2.50;2.30;;;;;;;;;;5097211;28;20497;-62
2023/08/31 06:17:12;;;;;;;2.33;2.13;;;;;;;;;;5098003;28;20203;-62
2023/08/31 06:19:42;;;;;;;2.40;2.20;;;;;;;;;;5096550;28;20200;-62
2023/08/31 06:22:09;;;;;;;2.60;2.40;;;;;;;;;;5097370;28;20598;-62
2023/08/31 06:24:37;;;;;;;2.38;2.20;;;;;;;;;;5096869;28;20196;-62
2023/08/31 06:27:05;;;;;;;3.00;2.80;;;;;;;;;;5097369;28;20243;-62
2023/08/31 06:29:32;;;;;;;2.65;2.45;;;;;;;;;;5096716;28;20231;-62
2023/08/31 06:32:00;;;;;;;3.00;2.70;;;;;;;;;;5096648;28;20730;-62
2023/08/31 06:34:27;;;;;;;3.10;2.55;;;;;;;;;;5096861;28;20219;-62
2023/08/31 06:36:58;;;;;;;3.38;3.00;;;;;;;;;;5097427;28;20601;-62
2023/08/31 06:39:25;;;;;;;3.05;2.75;;;;;;;;;;5097146;28;20207;-62
2023/08/31 06:41:52;;;;;;;2.80;2.60;;;;;;;;;;5096904;28;20214;-62
2023/08/31 06:44:19;;;;;;;2.80;2.60;;;;;;;;;;5096408;28;20210;-62
2023/08/31 06:46:47;;;;;;;3.20;2.90;;;;;;;;;;5096665;28;20733;-62
2023/08/31 06:49:14;;;;;;;2.90;2.65;;;;;;;;;;5096402;28;20228;-62
2023/08/31 06:51:42;;;;;;;3.03;2.70;;;;;;;;;;5096450;28;20215;-62
2023/08/31 06:54:11;;;;;;;3.70;3.40;;;;;;;;;;5096421;28;20196;-62
2023/08/31 06:56:38;;;;;;;3.75;3.45;;;;;;;;;;5096556;28;20538;-62
2023/08/31 06:59:06;;;;;;;4.20;3.80;;;;;;;;;;5096499;28;20199;-62
2023/08/31 07:01:33;;;;;;;4.65;3.70;;;;;;;;;;5095596;28;20206;-62
2023/08/31 07:04:01;;;;;;;4.55;3.92;;;;;;;;;;5096788;28;20283;-62
2023/08/31 07:06:28;;;;;;;4.25;3.85;;;;;;;;;;5096855;28;20218;-62
2023/08/31 07:08:56;;;;;;;3.67;3.38;;;;;;;;;;5096380;28;20615;-62
2023/08/31 07:11:24;;;;;;;4.07;3.67;;;;;;;;;;5096112;28;20211;-62
2023/08/31 07:13:52;;;;;;;3.70;3.40;;;;;;;;;;5096851;28;20249;-62
2023/08/31 07:16:20;;;;;;;3.80;3.50;;;;;;;;;;5096441;28;20211;-61
2023/08/31 07:18:48;;;;;;;4.15;3.75;;;;;;;;;;5095290;28;20575;-61
2023/08/31 07:21:15;;;;;;;3.60;3.30;;;;;;;;;;5095790;28;20195;-61
2023/08/31 07:23:42;;;;;;;3.55;3.25;;;;;;;;;;5095589;28;20223;-61
2023/08/31 07:26:10;;;;;;;4.25;3.85;;;;;;;;;;5096098;28;20203;-61
2023/08/31 07:28:38;;;;;;;3.95;3.65;;;;;;;;;;5095689;28;20215;-61
2023/08/31 07:31:06;;;;;;;3.78;3.47;;;;;;;;;;5096539;28;20512;-61
2023/08/31 07:33:35;;;;;;;3.80;3.50;;;;;;;;;;5096686;28;20203;-61
2023/08/31 07:36:03;;;;;;;4.18;3.67;;;;;;;;;;5095900;28;20297;-62
2023/08/31 07:38:31;;;;;;;3.85;3.45;;;;;;;;;;5096109;28;20290;-62
2023/08/31 07:40:59;;;;;;;3.83;3.47;;;;;;;;;;5095437;28;20204;-62
2023/08/31 07:43:27;;;;;;;4.25;3.80;;;;;;;;;;5115193;28;20207;-62
2023/08/31 07:45:56;;;;;;;3.83;3.53;;;;;;;;;;5116160;28;20589;-62
2023/08/31 07:48:23;;;;;;;4.82;3.80;;;;;;;;;;5115716;28;20214;-62
2023/08/31 07:50:50;;;;;;;5.40;4.30;;;;;;;;;;5115393;28;20195;-62
2023/08/31 07:53:18;;;;;;;5.53;4.10;;;;;;;;;;5114675;28;20203;-62
2023/08/31 07:55:54;;;;;;;4.63;4.10;;;;;;;;;;5115855;28;20199;-62
2023/08/31 07:58:21;;;;;;;4.70;4.30;;;;;;;;;;5114895;28;20289;-62
2023/08/31 08:00:48;;;;;;;5.40;4.38;;;;;;;;;;5115128;28;20229;-62
2023/08/31 08:03:17;;;;;;;4.35;3.95;;;;;;;;;;5115500;28;20199;-62
2023/08/31 08:05:44;;;;;;;4.80;4.30;;;;;;;;;;5114830;28;20226;-62
2023/08/31 08:08:12;;;;;;;4.70;4.30;;;;;;;;;;5115705;28;20613;-62
2023/08/31 08:10:40;;;;;;;4.32;3.92;;;;;;;;;;5115363;28;20241;-62
2023/08/31 08:13:07;;;;;;;4.55;3.80;;;;;;;;;;5133149;27;20260;-62
2023/08/31 08:15:35;;;;;;;4.15;3.75;;;;;;;;;;5123561;27;20584;-62
2023/08/31 08:18:02;;;;;;;4.25;3.75;;;;;;;;;;5115325;28;20504;-62
2023/08/31 08:20:31;;;;;;;4.15;3.75;;;;;;;;;;5115539;28;20195;-62
2023/08/31 08:22:59;;;;;;;4.20;3.58;;;;;;;;;;5114847;28;20598;-62
2023/08/31 08:25:26;;;;;;;3.72;3.40;;;;;;;;;;5112933;28;20203;-62
2023/08/31 08:27:54;;;;;;;5.85;3.70;;;;;;;;;;5115291;28;20205;-62
2023/08/31 08:30:22;;;;;;;3.40;3.10;;;;;;;;;;5115466;28;20311;-61
2023/08/31 08:32:50;;;;;;;4.70;3.47;;;;;;;;;;5114938;28;20206;-62
2023/08/31 08:35:17;;;;;;;3.22;2.90;;;;;;;;;;5115091;28;20267;-62
2023/08/31 08:37:46;;;;;;;3.70;3.40;;;;;;;;;;5115225;28;20230;-62
2023/08/31 08:40:13;;;;;;;3.38;3.08;;;;;;;;;;5109414;28;20211;-62
2023/08/31 08:42:42;;;;;;;3.58;3.05;;;;;;;;;;5107198;28;20206;-62
2023/08/31 08:45:15;;;;;;;3.83;2.92;;;;;;;;;;5102107;28;20462;-62
2023/08/31 08:47:44;;;;;;;3.20;2.88;;;;;;;;;;5101562;28;20195;-62
2023/08/31 08:50:13;;;;;;;3.30;3.00;;;;;;;;;;5115205;28;20800;-62
2023/08/31 08:52:41;;;;;;;4.50;2.83;;;;;;;;;;5102050;28;20278;-62
2023/08/31 08:55:10;;;;;;;3.63;2.75;;;;;;;;;;5095487;28;20504;-61
2023/08/31 08:57:38;;;;;;;3.35;2.70;;;;;;;;;;5094521;28;20203;-61
2023/08/31 09:00:06;;;;;;;2.60;2.40;;;;;;;;;;5097529;28;20187;-61
2023/08/31 09:02:34;;;;;;;4.60;2.30;;;;;;;;;;5114386;28;20203;-61
2023/08/31 09:05:02;;;;;;;2.83;2.63;;;;;;;;;;5106940;28;20196;-61
2023/08/31 09:07:31;;;;;;;3.30;2.42;;;;;;;;;;5094627;28;20204;-61
2023/08/31 09:10:01;;;;;;;4.57;2.40;;;;;;;;;;5093726;28;20231;-61
2023/08/31 09:12:30;;;;;;;3.63;2.70;;;;;;;;;;5093404;28;20243;-61
2023/08/31 09:15:01;;;;;;;2.60;2.40;;;;;;;;;;5094210;28;20207;-61
2023/08/31 09:17:38;;;;;;;2.78;2.25;;;;;;;;;;5099735;28;20217;-61
2023/08/31 09:20:07;;;;;;;3.53;2.50;;;;;;;;;;5113887;28;20198;-61
2023/08/31 09:22:34;;;;;;;2.55;2.35;;;;;;;;;;5114244;28;20210;-61
2023/08/31 09:25:03;;;;;;;3.33;2.70;;;;;;;;;;5114104;28;20454;-61
2023/08/31 09:27:33;;;;;;;3.42;2.72;;;;;;;;;;5114325;28;20211;-61
2023/08/31 09:30:00;;;;;;;4.75;2.65;;;;;;;;;;5114199;28;20284;-61
2023/08/31 09:32:27;;;;;;;3.88;2.58;;;;;;;;;;5113592;28;20297;-61
2023/08/31 09:34:55;;;;;;;3.92;2.80;;;;;;;;;;5113544;28;20195;-61
2023/08/31 09:37:22;;;;;;;3.20;2.63;;;;;;;;;;5117795;28;20214;-61
2023/08/31 09:39:50;;;;;;;3.80;2.90;;;;;;;;;;5117653;28;20259;-61
2023/08/31 09:42:17;;;;;;;2.50;2.30;;;;;;;;;;5117747;28;20210;-61
2023/08/31 09:44:51;;;;;;;2.97;2.65;;;;;;;;;;5116399;28;20203;-61
2023/08/31 09:47:19;;;;;;;3.42;2.58;;;;;;;;;;5115918;28;20203;-61
2023/08/31 09:49:47;;;;;;;5.05;3.08;;;;;;;;;;5116598;28;20229;-61
2023/08/31 09:52:16;;;;;;;3.58;2.90;;;;;;;;;;5117577;28;20199;-61
2023/08/31 09:54:44;;;;;;;4.57;2.75;;;;;;;;;;5117676;28;20203;-61
2023/08/31 09:57:12;;;;;;;3.33;3.00;;;;;;;;;;5117215;28;20207;-61
2023/08/31 09:59:40;;;;;;;2.97;2.78;;;;;;;;;;5114082;28;20495;-61
2023/08/31 10:02:10;;;;;;;4.25;2.88;;;;;;;;;;5116700;28;20203;-61
2023/08/31 10:04:38;;;;;;;2.75;2.50;;;;;;;;;;5116558;28;20217;-61
2023/08/31 10:07:06;;;;;;;3.92;2.58;;;;;;;;;;5116746;28;20721;-61
2023/08/31 10:09:34;;;;;;;2.70;2.47;;;;;;;;;;5116143;28;20222;-61
2023/08/31 10:12:01;;;;;;;2.55;2.25;;;;;;;;;;5108253;28;20262;-61
2023/08/31 10:14:29;;;;;;;2.50;2.10;;;;;;;;;;5096284;28;20238;-61
2023/08/31 10:16:57;;;;;;;2.70;2.30;;;;;;;;;;5096315;28;20200;-61
2023/08/31 10:19:26;;;;;;;2.85;2.20;;;;;;;;;;5096416;28;20631;-61
2023/08/31 10:21:56;;;;;;;3.30;2.55;;;;;;;;;;5095918;28;20199;-61
2023/08/31 10:24:57;;;;;;;3.92;2.58;;;;;;;;;;5096059;28;20307;-61
2023/08/31 10:27:24;;;;;;;2.88;2.40;;;;;;;;;;5096010;28;20203;-62
2023/08/31 10:29:52;;;;;;;3.10;2.80;;;;;;;;;;5095317;28;20223;-62
2023/08/31 10:32:21;;;;;;;3.15;2.85;;;;;;;;;;5095542;28;20199;-61
2023/08/31 10:35:03;;;;;;;4.65;3.00;;;;;;;;;;5094525;28;20466;-61
2023/08/31 10:37:32;;;;;;;4.65;2.78;;;;;;;;;;5095479;28;20589;-61
2023/08/31 10:40:08;;;;;;;3.05;2.60;;;;;;;;;;5094747;28;20605;-61
2023/08/31 10:42:43;;;;;;;3.78;2.78;;;;;;;;;;5094135;28;20211;-61
2023/08/31 10:45:11;;;;;;;3.30;3.00;;;;;;;;;;5095993;28;20252;-61
2023/08/31 10:47:39;;;;;;;2.90;2.53;;;;;;;;;;5094541;28;20199;-62
2023/08/31 10:50:21;;;;;;;3.03;2.65;;;;;;;;;;5095078;28;20223;-62
2023/08/31 10:52:50;;;;;;;3.47;2.78;;;;;;;;;;5091997;28;20740;-62
2023/08/31 10:55:17;;;;;;;3.28;2.72;;;;;;;;;;5095808;28;20210;-62
2023/08/31 10:57:45;;;;;;;2.63;2.42;;;;;;;;;;5094787;28;20595;-61
2023/08/31 11:00:13;;;;;;;3.92;2.50;;;;;;;;;;5094834;28;20609;-61
2023/08/31 11:02:43;;;;;;;3.28;2.50;;;;;;;;;;5094052;28;20211;-61
2023/08/31 11:05:11;;;;;;;3.97;2.65;;;;;;;;;;5094886;28;20196;-61
2023/08/31 11:07:40;;;;;;;4.30;2.67;;;;;;;;;;5095469;28;20505;-61
2023/08/31 11:10:16;;;;;;;3.15;2.60;;;;;;;;;;5094848;28;20220;-61
2023/08/31 11:12:44;;;;;;;2.95;2.60;;;;;;;;;;5094333;28;20287;-61
2023/08/31 11:15:15;;;;;;;2.83;2.45;;;;;;;;;;5094189;28;20242;-61
2023/08/31 11:17:43;;;;;;;3.05;2.33;;;;;;;;;;5093637;28;20199;-61
2023/08/31 11:20:11;;;;;;;2.63;2.25;;;;;;;;;;5094735;28;20206;-61
2023/08/31 11:22:42;;;;;;;2.78;2.42;;;;;;;;;;5093860;28;20221;-61
2023/08/31 11:25:11;;;;;;;2.70;2.20;;;;;;;;;;5094858;28;20206;-61
2023/08/31 11:27:39;;;;;;;2.45;2.22;;;;;;;;;;5094457;28;20606;-61
2023/08/31 11:30:12;;;;;;;2.88;2.05;;;;;;;;;;5094839;28;20230;-61
2023/08/31 11:32:45;;;;;;;2.47;2.28;;;;;;;;;;5093869;28;20203;-62
2023/08/31 11:35:12;;;;;;;2.95;2.10;;;;;;;;;;5095106;28;20203;-62
2023/08/31 11:37:40;;;;;;;3.85;2.30;;;;;;;;;;5094272;28;20252;-62
2023/08/31 11:40:08;;;;;;;2.45;2.25;;;;;;;;;;5094420;28;20604;-62
2023/08/31 11:42:35;;;;;;;3.53;1.95;;;;;;;;;;5093709;28;20203;-62
2023/08/31 11:45:05;;;;;;;2.78;2.00;;;;;;;;;;5093886;28;20486;-62
2023/08/31 11:47:32;;;;;;;2.50;1.98;;;;;;;;;;5093686;28;20200;-62
2023/08/31 11:50:01;;;;;;;3.20;2.28;;;;;;;;;;5093226;28;20223;-61
2023/08/31 11:52:29;;;;;;;2.30;2.10;;;;;;;;;;5094461;28;20209;-61
2023/08/31 11:54:56;;;;;;;2.55;2.00;;;;;;;;;;5095453;28;20203;-61
2023/08/31 11:57:28;;;;;;;2.63;2.10;;;;;;;;;;5094707;28;20245;-62
2023/08/31 11:59:56;;;;;;;2.25;1.83;;;;;;;;;;5093063;28;20283;-62
2023/08/31 12:02:25;;;;;;;2.92;2.10;;;;;;;;;;5094106;28;20265;-62
2023/08/31 12:04:53;;;;;;;2.63;1.77;;;;;;;;;;5094010;28;20231;-62
2023/08/31 12:07:20;;;;;;;2.60;1.85;;;;;;;;;;5094180;28;20242;-62
2023/08/31 12:09:48;;;;;;;2.55;2.20;;;;;;;;;;5093298;28;20227;-62
2023/08/31 12:12:16;;;;;;;2.60;1.88;;;;;;;;;;5104682;28;20231;-62
2023/08/31 12:14:45;;;;;;;1.80;1.70;;;;;;;;;;5114190;28;20270;-62
2023/08/31 12:17:12;;;;;;;1.83;1.73;;;;;;;;;;5113996;28;20203;-62
2023/08/31 12:19:42;;;;;;;2.05;1.85;;;;;;;;;;5114532;28;20195;-62
2023/08/31 12:22:12;;;;;;;2.75;1.75;;;;;;;;;;5114335;28;20195;-62
2023/08/31 12:24:40;;;;;;;2.65;1.70;;;;;;;;;;5113679;28;20238;-62
2023/08/31 12:27:07;;;;;;;4.13;1.80;;;;;;;;;;5112858;28;20214;-62
2023/08/31 12:29:35;;;;;;;2.28;1.80;;;;;;;;;;5113873;28;20226;-62
2023/08/31 12:32:03;;;;;;;3.25;1.70;;;;;;;;;;5114206;28;20202;-62
2023/08/31 12:34:32;;;;;;;2.33;1.80;;;;;;;;;;5113877;28;20601;-62
2023/08/31 12:37:02;;;;;;;2.10;1.90;;;;;;;;;;5114135;28;20238;-62
2023/08/31 12:39:30;;;;;;;1.80;1.70;;;;;;;;;;5113406;28;20225;-62
2023/08/31 12:41:57;;;;;;;2.40;1.80;;;;;;;;;;5112920;28;20581;-62
2023/08/31 12:44:25;;;;;;;2.22;1.80;;;;;;;;;;5113405;28;20491;-62
2023/08/31 12:46:53;;;;;;;3.45;2.00;;;;;;;;;;5114248;28;20199;-62
2023/08/31 12:49:21;;;;;;;2.45;1.88;;;;;;;;;;5113725;28;20199;-62
2023/08/31 12:51:50;;;;;;;1.65;1.55;;;;;;;;;;5114321;28;20231;-62
2023/08/31 12:54:19;;;;;;;2.47;1.67;;;;;;;;;;5114092;28;20294;-62
2023/08/31 12:56:46;;;;;;;2.30;1.70;;;;;;;;;;5114275;28;20207;-62
2023/08/31 12:59:14;;;;;;;2.00;1.70;;;;;;;;;;5113999;28;20195;-62
2023/08/31 13:01:41;;;;;;;2.15;1.77;;;;;;;;;;5114013;28;20195;-62
2023/08/31 13:04:09;;;;;;;2.88;1.60;;;;;;;;;;5113803;28;20217;-62
2023/08/31 13:06:36;;;;;;;1.90;1.70;;;;;;;;;;5113578;28;20194;-62
2023/08/31 13:09:05;;;;;;;3.10;1.80;;;;;;;;;;5113552;28;20211;-62
2023/08/31 13:11:34;;;;;;;2.28;1.90;;;;;;;;;;5116915;28;20227;-62
2023/08/31 13:14:02;;;;;;;2.08;1.70;;;;;;;;;;5117220;28;20203;-62
2023/08/31 13:16:29;;;;;;;2.03;1.75;;;;;;;;;;5117203;28;20237;-62
2023/08/31 13:18:57;;;;;;;1.75;1.55;;;;;;;;;;5117837;28;20202;-62
2023/08/31 13:21:24;;;;;;;2.90;2.05;;;;;;;;;;5116951;28;20610;-62
2023/08/31 13:23:51;;;;;;;2.08;1.83;;;;;;;;;;5117078;28;20203;-62
2023/08/31 13:26:19;;;;;;;2.03;1.90;;;;;;;;;;5115231;28;20211;-62
2023/08/31 13:28:47;;;;;;;1.77;1.60;;;;;;;;;;5117459;28;20298;-62
2023/08/31 13:31:15;;;;;;;2.03;1.50;;;;;;;;;;5117484;28;20222;-62
2023/08/31 13:33:43;;;;;;;2.97;1.50;;;;;;;;;;5118324;28;20203;-62
2023/08/31 13:36:11;;;;;;;2.35;1.30;;;;;;;;;;5117136;28;20624;-62
2023/08/31 13:38:39;;;;;;;2.50;1.65;;;;;;;;;;5117055;28;20245;-62
2023/08/31 13:41:08;;;;;;;1.65;1.50;;;;;;;;;;5116913;28;20195;-62
2023/08/31 13:43:35;;;;;;;3.33;1.65;;;;;;;;;;5115900;28;20263;-62
2023/08/31 13:46:05;;;;;;;2.42;1.70;;;;;;;;;;5116478;28;20256;-62
2023/08/31 13:48:32;;;;;;;2.95;1.60;;;;;;;;;;5117520;28;20206;-62
2023/08/31 13:51:00;;;;;;;2.08;1.40;;;;;;;;;;5116483;28;20222;-62
2023/08/31 13:53:27;;;;;;;2.92;1.77;;;;;;;;;;5117659;28;20203;-62
2023/08/31 13:55:55;;;;;;;2.38;1.48;;;;;;;;;;5117214;28;20203;-62
2023/08/31 13:58:22;;;;;;;1.65;1.45;;;;;;;;;;5117164;28;20203;-62
2023/08/31 14:00:50;;;;;;;2.42;1.40;;;;;;;;;;5116789;28;20199;-62
2023/08/31 14:03:18;;;;;;;1.50;1.40;;;;;;;;;;5116707;28;20214;-62
2023/08/31 14:05:49;;;;;;;4.07;1.70;;;;;;;;;;5116480;28;20736;-62
2023/08/31 14:08:17;;;;;;;2.60;1.42;;;;;;;;;;5115723;28;20256;-62
2023/08/31 14:10:44;;;;;;;1.30;1.20;;;;;;;;;;5115073;28;20222;-62
2023/08/31 14:13:11;;;;;;;2.50;1.60;;;;;;;;;;5098785;28;20497;-63
2023/08/31 14:15:45;;;;;;;1.70;1.60;;;;;;;;;;5095940;28;20211;-62
2023/08/31 14:18:13;;;;;;;1.75;1.58;;;;;;;;;;5095223;28;20298;-62
2023/08/31 14:20:42;;;;;;;1.85;1.50;;;;;;;;;;5094406;28;20207;-62
2023/08/31 14:23:10;;;;;;;2.65;1.50;;;;;;;;;;5094815;28;20225;-62
2023/08/31 14:25:38;;;;;;;2.50;1.92;;;;;;;;;;5095805;28;20203;-62
2023/08/31 14:28:06;;;;;;;2.90;1.60;;;;;;;;;;5095714;28;20215;-62
2023/08/31 14:30:33;;;;;;;1.90;1.45;;;;;;;;;;5094836;28;20227;-62
2023/08/31 14:33:01;;;;;;;2.38;1.52;;;;;;;;;;5095949;28;20199;-62
2023/08/31 14:35:29;;;;;;;1.40;1.30;;;;;;;;;;5095942;28;20724;-63
2023/08/31 14:37:58;;;;;;;1.75;1.35;;;;;;;;;;5096360;28;20211;-62
2023/08/31 14:40:26;;;;;;;1.90;1.20;;;;;;;;;;5096422;28;20550;-62
2023/08/31 14:42:53;;;;;;;1.52;1.40;;;;;;;;;;5096400;28;20203;-62
2023/08/31 14:45:20;;;;;;;2.45;1.30;;;;;;;;;;5096547;28;20208;-62
2023/08/31 14:47:48;;;;;;;2.17;1.50;;;;;;;;;;5094978;28;20195;-62
2023/08/31 14:50:15;;;;;;;1.75;1.25;;;;;;;;;;5096231;28;20203;-62
2023/08/31 14:52:43;;;;;;;1.40;1.25;;;;;;;;;;5096097;28;20202;-62